Terminal Aerodrome Forecast
Issued by NWS

Home | Current Version | Previous Version | Text Only | Print | Product List | Glossary On
Versions: 1 2 3 4 5 6 7 8 9 10 11 12 13 14 15 16
000
FTUS46 KMTR 230526
TAFSNS
TAF
KSNS 230526Z 2306/2406 28008KT 4SM BR OVC003
     FM231200 12004KT 3SM BR OVC003
     FM231500 10003KT P6SM BKN006
     FM231600 VRB03KT P6SM SKC
     FM232000 30014KT P6SM SKC
     FM240100 31013KT P6SM BKN007=

USA.gov is the U.S. government's official web portal to all federal, state and local government web resources and services.